createdAt,value
2023-04-05T00:01:19.437Z,51.88
2023-04-05T00:03:49.151Z,51.74
2023-04-05T00:06:17.551Z,52.14
2023-04-05T00:08:50.099Z,52.02
2023-04-05T00:11:20.108Z,52.19
2023-04-05T00:13:48.501Z,51.92
2023-04-05T00:16:17.362Z,52.01
2023-04-05T00:18:50.063Z,52.17
2023-04-05T00:21:18.676Z,52.62
2023-04-05T00:23:46.957Z,52.73
2023-04-05T00:26:15.774Z,52.57
2023-04-05T00:28:45.821Z,52.11
2023-04-05T00:31:14.219Z,52.08
2023-04-05T00:33:43.321Z,52.61
2023-04-05T00:36:13.180Z,52.51
2023-04-05T00:38:42.626Z,52.13
2023-04-05T00:41:12.300Z,52.30
2023-04-05T00:43:41.169Z,52.75
2023-04-05T00:46:11.224Z,52.01
2023-04-05T00:48:40.215Z,52.65
2023-04-05T00:51:11.675Z,53.01
2023-04-05T00:53:41.073Z,52.83
2023-04-05T00:56:13.812Z,52.80
2023-04-05T00:58:43.034Z,52.76
2023-04-05T01:01:18.827Z,52.14
2023-04-05T01:03:54.060Z,52.35
2023-04-05T01:06:54.622Z,53.13
2023-04-05T01:09:34.796Z,52.63
2023-04-05T01:12:07.358Z,52.99
2023-04-05T01:14:46.502Z,52.91
2023-04-05T01:17:16.606Z,52.71
2023-04-05T01:19:48.320Z,53.06
2023-04-05T01:22:41.370Z,53.04
2023-04-05T01:25:37.444Z,53.08
2023-04-05T01:28:36.431Z,53.22
2023-04-05T01:31:10.226Z,52.89
2023-04-05T01:33:46.239Z,52.98
2023-04-05T01:36:21.741Z,53.34
2023-04-05T01:38:52.235Z,52.88
2023-04-05T01:41:21.681Z,52.88
2023-04-05T01:43:49.972Z,53.12
2023-04-05T01:46:19.710Z,53.23
2023-04-05T01:48:48.068Z,53.00
2023-04-05T01:51:16.489Z,52.97
2023-04-05T01:53:44.844Z,52.74
2023-04-05T01:56:13.162Z,52.84
2023-04-05T01:58:41.504Z,53.38
2023-04-05T02:01:09.825Z,53.30
2023-04-05T02:03:39.667Z,53.05
2023-04-05T02:06:08.417Z,53.31
2023-04-05T02:08:36.748Z,52.69
2023-04-05T02:11:05.014Z,53.04
2023-04-05T02:13:33.383Z,52.84
2023-04-05T02:16:01.795Z,52.74
2023-04-05T02:18:31.721Z,52.72
2023-04-05T02:21:05.637Z,53.13
2023-04-05T02:23:34.238Z,53.15
2023-04-05T02:26:02.935Z,52.96
2023-04-05T02:28:31.731Z,53.01
2023-04-05T02:31:00.152Z,52.79
2023-04-05T02:33:29.849Z,53.03
2023-04-05T02:35:58.245Z,52.71
2023-04-05T02:38:28.251Z,52.89
2023-04-05T02:40:56.693Z,52.98
2023-04-05T02:43:25.121Z,53.01
2023-04-05T02:45:53.600Z,52.46
2023-04-05T02:48:21.884Z,53.22
2023-04-05T02:50:50.320Z,53.31
2023-04-05T02:53:18.742Z,53.08
2023-04-05T02:55:55.270Z,53.05
2023-04-05T02:58:24.050Z,53.18
2023-04-05T03:00:54.574Z,53.47
2023-04-05T03:03:24.196Z,52.89
2023-04-05T03:06:00.660Z,53.26
2023-04-05T03:08:29.061Z,53.55
2023-04-05T03:10:58.789Z,53.17
2023-04-05T03:13:27.053Z,53.01
2023-04-05T03:15:56.200Z,53.49
2023-04-05T03:18:26.070Z,53.28
2023-04-05T03:20:56.957Z,53.31
2023-04-05T03:23:27.451Z,53.23
2023-04-05T03:25:57.520Z,53.47
2023-04-05T03:28:27.383Z,53.48
2023-04-05T03:30:55.790Z,54.05
2023-04-05T03:33:24.073Z,53.35
2023-04-05T03:35:52.809Z,53.44
2023-04-05T03:38:21.594Z,53.31
2023-04-05T03:40:50.043Z,52.89
2023-04-05T03:43:18.752Z,53.44
2023-04-05T03:45:48.563Z,53.35
2023-04-05T03:48:20.232Z,53.74
2023-04-05T03:50:48.551Z,53.18
2023-04-05T03:53:19.113Z,53.20
2023-04-05T03:55:49.718Z,53.25
2023-04-05T03:58:18.367Z,53.01
2023-04-05T04:00:48.905Z,53.21
2023-04-05T04:03:17.244Z,53.14
2023-04-05T04:05:45.876Z,53.66
2023-04-05T04:08:14.603Z,53.77
2023-04-05T04:10:43.225Z,53.74
2023-04-05T04:13:11.492Z,53.35
2023-04-05T04:15:40.045Z,53.19
2023-04-05T04:18:10.261Z,53.48
2023-04-05T04:20:38.746Z,53.64
2023-04-05T04:23:10.264Z,53.23
2023-04-05T04:25:38.870Z,53.47
2023-04-05T04:28:08.125Z,53.43
2023-04-05T04:30:36.897Z,53.22
2023-04-05T04:33:09.212Z,53.29
2023-04-05T04:35:39.914Z,53.45
2023-04-05T04:38:09.193Z,53.63
2023-04-05T04:40:40.058Z,53.46
2023-04-05T04:43:14.515Z,53.25
2023-04-05T04:45:43.470Z,54.01
2023-04-05T04:48:14.261Z,53.50
2023-04-05T04:50:44.874Z,54.46
2023-04-05T04:53:14.472Z,53.78
2023-04-05T04:55:43.513Z,53.96
2023-04-05T04:58:12.668Z,53.81
2023-04-05T05:00:42.102Z,53.93
2023-04-05T05:03:11.877Z,54.42
2023-04-05T05:05:45.941Z,54.15
2023-04-05T05:08:14.789Z,54.08
2023-04-05T05:10:43.620Z,53.70
2023-04-05T05:13:12.431Z,54.06
2023-04-05T05:15:42.038Z,53.76
2023-04-05T05:18:10.544Z,53.43
2023-04-05T05:20:39.128Z,53.84
2023-04-05T05:23:09.443Z,53.69
2023-04-05T05:25:38.737Z,53.85
2023-04-05T05:28:07.229Z,53.87
2023-04-05T05:30:35.514Z,53.90
2023-04-05T05:33:03.957Z,53.87
2023-04-05T05:35:32.650Z,53.96
2023-04-05T05:38:01.564Z,53.61
2023-04-05T05:40:31.546Z,54.29
2023-04-05T05:42:59.831Z,53.59
2023-04-05T05:45:28.708Z,54.09
2023-04-05T05:47:58.114Z,54.05
2023-04-05T05:50:26.575Z,54.39
2023-04-05T05:52:54.877Z,55.16
2023-04-05T05:55:23.604Z,54.99
2023-04-05T05:57:53.907Z,55.01
2023-04-05T06:00:22.980Z,55.17
2023-04-05T06:02:52.410Z,54.87
2023-04-05T06:05:20.831Z,54.94
2023-04-05T06:07:49.125Z,54.67
2023-04-05T06:10:17.421Z,55.28
2023-04-05T06:12:46.207Z,55.03
2023-04-05T06:15:16.106Z,54.74
2023-04-05T06:17:45.045Z,54.50
2023-04-05T06:20:14.329Z,54.65
2023-04-05T06:22:42.759Z,54.44
2023-04-05T06:25:13.155Z,54.64
2023-04-05T06:27:41.634Z,54.12
2023-04-05T06:30:10.780Z,54.19
2023-04-05T06:32:40.509Z,54.18
2023-04-05T06:35:09.716Z,54.58
2023-04-05T06:37:37.985Z,54.67
2023-04-05T06:40:07.770Z,54.21
2023-04-05T06:42:36.386Z,54.64
2023-04-05T06:45:05.680Z,54.27
2023-04-05T06:47:35.936Z,54.16
2023-04-05T06:50:07.212Z,54.38
2023-04-05T06:52:36.118Z,54.52
2023-04-05T06:55:05.147Z,54.58
2023-04-05T06:57:33.428Z,54.25
2023-04-05T07:00:01.750Z,54.03
2023-04-05T07:02:30.714Z,53.74
2023-04-05T07:05:05.112Z,53.85
2023-04-05T07:07:34.961Z,53.53
2023-04-05T07:10:03.229Z,53.28
2023-04-05T07:12:31.729Z,52.74
2023-04-05T07:15:01.080Z,52.75
2023-04-05T07:17:29.568Z,52.19
2023-04-05T07:19:57.863Z,51.83
2023-04-05T07:22:26.231Z,51.83
2023-04-05T07:24:55.921Z,51.60
2023-04-05T07:27:24.370Z,51.01
2023-04-05T07:29:52.641Z,50.72
2023-04-05T07:32:21.085Z,50.80
2023-04-05T07:34:49.559Z,49.94
2023-04-05T07:37:17.854Z,50.05
2023-04-05T07:39:46.554Z,50.09
2023-04-05T07:42:17.965Z,49.81
2023-04-05T07:44:46.823Z,49.52
2023-04-05T07:47:15.376Z,49.67
2023-04-05T07:49:43.901Z,49.40
2023-04-05T07:52:12.335Z,49.28
2023-04-05T07:54:43.337Z,48.69
2023-04-05T07:57:11.724Z,47.02
2023-04-05T07:59:41.775Z,47.11
2023-04-05T08:02:14.608Z,47.16
2023-04-05T08:04:43.325Z,47.49
2023-04-05T08:07:11.813Z,47.32
2023-04-05T08:09:40.079Z,47.36
2023-04-05T08:12:08.960Z,47.10
2023-04-05T08:14:37.672Z,47.00
2023-04-05T08:17:07.484Z,46.55
2023-04-05T08:19:35.804Z,46.55
2023-04-05T08:22:04.481Z,44.76
2023-04-05T08:24:32.892Z,44.72
2023-04-05T08:27:01.613Z,45.14
2023-04-05T08:29:30.103Z,45.39
2023-04-05T08:31:59.137Z,45.36
2023-04-05T08:34:28.930Z,44.78
2023-04-05T08:37:00.587Z,44.03
2023-04-05T08:39:28.991Z,44.39
2023-04-05T08:42:04.831Z,43.96
2023-04-05T08:44:33.461Z,44.23
2023-04-05T08:47:02.560Z,44.31
2023-04-05T08:49:32.355Z,43.66
2023-04-05T08:52:02.306Z,43.86
2023-04-05T08:54:30.751Z,43.37
2023-04-05T08:57:01.227Z,42.52
2023-04-05T08:59:30.099Z,42.95
2023-04-05T09:02:00.988Z,42.78
2023-04-05T09:04:38.386Z,43.01
2023-04-05T09:07:08.880Z,43.19
2023-04-05T09:09:40.033Z,42.86
2023-04-05T09:12:09.620Z,42.69
2023-04-05T09:14:39.282Z,41.70
2023-04-05T09:17:08.378Z,41.53
2023-04-05T09:19:38.120Z,41.35
2023-04-05T09:22:07.615Z,40.86
2023-04-05T09:24:40.976Z,41.30
2023-04-05T09:27:11.404Z,41.09
2023-04-05T09:29:41.552Z,41.09
2023-04-05T09:32:11.086Z,40.97
2023-04-05T09:34:42.415Z,40.42
2023-04-05T09:37:15.660Z,40.40
2023-04-05T09:39:44.573Z,40.15
2023-04-05T09:42:15.705Z,39.83
2023-04-05T09:44:51.354Z,39.70
2023-04-05T09:47:21.581Z,40.27
2023-04-05T09:49:51.345Z,40.19
2023-04-05T09:52:23.712Z,39.23
2023-04-05T09:54:54.389Z,39.58
2023-04-05T09:57:23.760Z,39.50
2023-04-05T09:59:52.175Z,38.01
2023-04-05T10:02:20.909Z,38.21
2023-04-05T10:04:50.869Z,38.80
2023-04-05T10:07:21.283Z,39.02
2023-04-05T10:09:50.111Z,39.17
2023-04-05T10:12:27.092Z,38.60
2023-04-05T10:14:57.037Z,38.31
2023-04-05T10:17:29.591Z,38.76
2023-04-05T10:20:11.155Z,38.46
2023-04-05T10:23:08.123Z,38.42
2023-04-05T10:26:00.325Z,38.54
2023-04-05T10:28:33.070Z,37.19
2023-04-05T10:31:12.887Z,38.00
2023-04-05T10:33:47.841Z,38.01
2023-04-05T10:36:28.780Z,37.98
2023-04-05T10:39:05.464Z,37.73
2023-04-05T10:41:41.800Z,37.35
2023-04-05T10:44:25.123Z,36.15
2023-04-05T10:46:56.381Z,36.19
2023-04-05T10:49:33.840Z,36.18
2023-04-05T10:52:04.254Z,36.30
2023-04-05T10:54:37.078Z,35.47
2023-04-05T10:57:09.309Z,36.52
2023-04-05T10:59:43.171Z,36.34
2023-04-05T11:02:11.559Z,35.71
2023-04-05T11:04:42.304Z,36.60
2023-04-05T11:07:17.355Z,36.88
2023-04-05T11:09:54.851Z,36.36
2023-04-05T11:13:04.468Z,35.94
2023-04-05T11:15:34.309Z,36.77
2023-04-05T11:18:04.917Z,36.71
2023-04-05T11:20:44.421Z,36.53
2023-04-05T11:23:15.829Z,36.60
2023-04-05T11:25:49.028Z,34.83
2023-04-05T11:28:37.882Z,35.09
2023-04-05T11:31:15.681Z,35.11
2023-04-05T11:33:59.698Z,35.91
2023-04-05T11:36:31.593Z,36.23
2023-04-05T11:39:26.181Z,35.74
2023-04-05T11:42:05.650Z,35.56
2023-04-05T11:44:45.776Z,35.20
2023-04-05T11:47:14.250Z,35.72
2023-04-05T11:49:42.840Z,34.90
2023-04-05T11:52:16.828Z,34.79
2023-04-05T11:54:47.507Z,34.29
2023-04-05T11:57:17.506Z,34.44
2023-04-05T11:59:46.154Z,34.68
2023-04-05T12:02:14.507Z,34.95
2023-04-05T12:04:43.163Z,35.02
2023-04-05T12:07:13.159Z,34.90
2023-04-05T12:10:05.690Z,34.37
2023-04-05T12:12:41.599Z,34.24
2023-04-05T12:15:12.057Z,34.34
2023-04-05T12:17:45.034Z,33.44
2023-04-05T12:20:14.768Z,32.74
2023-04-05T12:22:44.919Z,33.10
2023-04-05T12:25:14.993Z,32.95
2023-04-05T12:27:43.732Z,33.30
2023-04-05T12:30:18.116Z,32.01
2023-04-05T12:32:47.914Z,31.88
2023-04-05T12:35:21.095Z,32.44
2023-04-05T12:37:52.167Z,32.05
2023-04-05T12:40:25.921Z,31.86
2023-04-05T12:42:54.242Z,31.71
2023-04-05T12:45:25.379Z,31.89
2023-04-05T12:47:54.699Z,31.68
2023-04-05T12:50:29.364Z,32.16
2023-04-05T12:53:00.005Z,32.63
2023-04-05T12:55:30.974Z,32.55
2023-04-05T12:58:01.463Z,32.54
2023-04-05T13:00:31.752Z,32.49
2023-04-05T13:03:01.139Z,32.27
2023-04-05T13:05:31.419Z,31.25
2023-04-05T13:07:59.984Z,31.34
2023-04-05T13:10:29.791Z,31.48
2023-04-05T13:12:58.339Z,31.93
2023-04-05T13:15:27.354Z,32.46
2023-04-05T13:17:56.005Z,30.63
2023-04-05T13:20:24.466Z,30.63
2023-04-05T13:22:53.117Z,30.57
2023-04-05T13:25:21.442Z,31.21
2023-04-05T13:27:51.553Z,31.77
2023-04-05T13:30:20.005Z,31.61
2023-04-05T13:32:48.391Z,31.86
2023-04-05T13:35:16.760Z,32.18
2023-04-05T13:37:45.142Z,31.50
2023-04-05T13:40:13.882Z,31.71
2023-04-05T13:42:42.225Z,30.34
2023-04-05T13:45:13.455Z,30.65
2023-04-05T13:47:42.095Z,30.90
2023-04-05T13:50:11.404Z,30.92
2023-04-05T13:52:39.693Z,30.68
2023-04-05T13:55:09.000Z,30.27
2023-04-05T13:57:37.587Z,30.50
2023-04-05T14:00:06.922Z,30.75
2023-04-05T14:02:37.141Z,31.27
2023-04-05T14:05:05.771Z,31.73
2023-04-05T14:07:35.823Z,31.80
2023-04-05T14:10:04.492Z,32.10
2023-04-05T14:12:32.872Z,31.84
2023-04-05T14:15:01.233Z,32.07
2023-04-05T14:17:29.729Z,32.16
2023-04-05T14:19:59.609Z,30.77
2023-04-05T14:22:28.047Z,30.22
2023-04-05T14:24:56.470Z,31.06
2023-04-05T14:27:27.169Z,31.46
2023-04-05T14:29:57.338Z,32.03
2023-04-05T14:32:26.367Z,32.14
2023-04-05T14:34:54.860Z,32.05
2023-04-05T14:37:24.736Z,31.28
2023-04-05T14:39:53.273Z,31.16
2023-04-05T14:42:24.729Z,31.31
2023-04-05T14:44:57.681Z,31.27
2023-04-05T14:47:26.500Z,31.10
2023-04-05T14:49:54.912Z,31.35
2023-04-05T14:52:24.789Z,31.73
2023-04-05T14:54:53.158Z,31.63
2023-04-05T14:57:21.607Z,31.86
2023-04-05T14:59:49.973Z,31.97
2023-04-05T15:02:18.540Z,31.74
2023-04-05T15:04:46.956Z,31.93
2023-04-05T15:07:15.428Z,32.03
2023-04-05T15:09:45.252Z,32.00
2023-04-05T15:12:13.665Z,32.31
2023-04-05T15:14:42.013Z,32.15
2023-04-05T15:17:10.589Z,32.29
2023-04-05T15:19:39.926Z,31.80
2023-04-05T15:22:08.405Z,31.87
2023-04-05T15:24:38.581Z,31.66
2023-04-05T15:27:08.405Z,31.62
2023-04-05T15:29:36.879Z,31.78
2023-04-05T15:32:05.657Z,32.07
2023-04-05T15:34:34.164Z,32.10
2023-04-05T15:37:02.631Z,32.31
2023-04-05T15:39:30.999Z,32.37
2023-04-05T15:41:59.843Z,32.44
2023-04-05T15:44:29.696Z,32.55
2023-04-05T15:46:58.119Z,32.29
2023-04-05T15:49:26.529Z,32.77
2023-04-05T15:51:54.960Z,33.03
2023-04-05T15:54:23.354Z,32.85
2023-04-05T15:56:51.707Z,32.99
2023-04-05T15:59:20.277Z,32.90
2023-04-05T16:01:50.234Z,32.92
2023-04-05T16:04:18.722Z,32.79
2023-04-05T16:06:47.148Z,32.96
2023-04-05T16:09:15.517Z,32.82
2023-04-05T16:11:44.391Z,33.13
2023-04-05T16:14:12.796Z,32.74
2023-04-05T16:16:50.578Z,32.83
2023-04-05T16:19:23.892Z,32.97
2023-04-05T16:21:53.641Z,33.03
2023-04-05T16:24:22.684Z,32.98
2023-04-05T16:26:51.085Z,33.09
2023-04-05T16:29:20.288Z,33.25
2023-04-05T16:31:49.024Z,33.57
2023-04-05T16:34:17.486Z,33.45
2023-04-05T16:36:47.404Z,33.32
2023-04-05T16:39:15.779Z,33.10
2023-04-05T16:41:44.451Z,32.86
2023-04-05T16:44:12.905Z,33.05
2023-04-05T16:46:41.328Z,33.32
2023-04-05T16:49:09.695Z,33.56
2023-04-05T16:51:38.313Z,33.54
2023-04-05T16:54:08.158Z,33.44
2023-04-05T16:56:37.141Z,33.43
2023-04-05T16:59:07.510Z,33.68
2023-04-05T17:01:36.797Z,33.59
2023-04-05T17:04:05.240Z,33.62
2023-04-05T17:06:33.730Z,33.64
2023-04-05T17:09:02.338Z,33.48
2023-04-05T17:11:37.235Z,33.21
2023-04-05T17:14:07.040Z,33.52
2023-04-05T17:16:36.116Z,33.74
2023-04-05T17:19:04.915Z,33.81
2023-04-05T17:21:35.574Z,34.01
2023-04-05T17:24:04.144Z,34.11
2023-04-05T17:26:33.991Z,33.98
2023-04-05T17:29:03.038Z,34.59
2023-04-05T17:31:33.549Z,34.38
2023-04-05T17:34:02.093Z,34.82
2023-04-05T17:36:31.061Z,35.29
2023-04-05T17:39:00.605Z,35.05
2023-04-05T17:41:29.187Z,35.66
2023-04-05T17:43:59.347Z,35.64
2023-04-05T17:46:40.281Z,35.92
2023-04-05T17:49:11.430Z,35.44
2023-04-05T17:51:40.287Z,35.82
2023-04-05T17:54:08.770Z,36.01
2023-04-05T17:56:38.177Z,36.33
2023-04-05T17:59:08.841Z,36.27
2023-04-05T18:01:39.731Z,36.49
2023-04-05T18:04:10.136Z,36.75
2023-04-05T18:06:40.512Z,36.99
2023-04-05T18:09:10.113Z,37.27
2023-04-05T18:11:38.840Z,36.97
2023-04-05T18:14:09.008Z,37.44
2023-04-05T18:16:37.502Z,37.38
2023-04-05T18:19:07.339Z,37.19
2023-04-05T18:21:36.299Z,37.47
2023-04-05T18:24:04.930Z,37.53
2023-04-05T18:26:35.143Z,37.66
2023-04-05T18:29:05.876Z,37.67
2023-04-05T18:31:52.050Z,37.71
2023-04-05T18:34:20.566Z,37.90
2023-04-05T18:36:48.997Z,37.78
2023-04-05T18:40:00.861Z,38.28
2023-04-05T18:42:29.236Z,37.95
2023-04-05T18:44:57.994Z,38.09
2023-04-05T18:47:28.417Z,38.13
2023-04-05T18:49:56.927Z,38.00
2023-04-05T18:52:27.458Z,38.37
2023-04-05T18:54:58.601Z,38.21
2023-04-05T18:57:27.762Z,38.16
2023-04-05T18:59:56.172Z,38.40
2023-04-05T19:02:24.965Z,38.78
2023-04-05T19:04:55.595Z,38.80
2023-04-05T19:07:24.499Z,38.98
2023-04-05T19:09:53.760Z,39.22
2023-04-05T19:12:22.748Z,39.34
2023-04-05T19:14:51.383Z,39.29
2023-04-05T19:17:19.957Z,39.46
2023-04-05T19:19:51.196Z,39.49
2023-04-05T19:22:21.374Z,39.55
2023-04-05T19:24:50.286Z,39.58
2023-04-05T19:27:19.134Z,39.62
2023-04-05T19:29:47.853Z,39.60
2023-04-05T19:32:17.102Z,39.66
2023-04-05T19:34:45.901Z,39.60
2023-04-05T19:37:14.726Z,39.98
2023-04-05T19:39:46.140Z,39.91
2023-04-05T19:42:15.071Z,40.21
2023-04-05T19:44:51.132Z,40.23
2023-04-05T19:47:21.207Z,40.29
2023-04-05T19:49:51.343Z,40.64
2023-04-05T19:52:39.546Z,40.44
2023-04-05T19:55:29.761Z,40.47
2023-04-05T19:57:59.551Z,40.49
2023-04-05T20:00:32.941Z,40.46
2023-04-05T20:03:02.497Z,40.40
2023-04-05T20:05:59.673Z,40.95
2023-04-05T20:08:29.217Z,40.86
2023-04-05T20:10:59.548Z,40.85
2023-04-05T20:13:28.862Z,40.68
2023-04-05T20:15:59.086Z,41.01
2023-04-05T20:18:29.201Z,41.24
2023-04-05T20:20:58.509Z,41.18
2023-04-05T20:23:30.478Z,41.03
2023-04-05T20:26:01.290Z,41.18
2023-04-05T20:28:36.500Z,41.23
2023-04-05T20:31:07.316Z,41.53
2023-04-05T20:33:43.437Z,41.57
2023-04-05T20:39:04.436Z,41.83
2023-04-05T20:41:34.594Z,41.75
2023-04-05T20:46:35.829Z,42.19
2023-04-05T20:49:04.296Z,42.38
2023-04-05T20:51:33.808Z,42.22
2023-04-05T20:54:03.425Z,42.18
2023-04-05T20:56:34.732Z,42.42
2023-04-05T20:59:03.341Z,42.53
2023-04-05T21:01:31.934Z,42.78
2023-04-05T21:04:01.845Z,42.86
2023-04-05T21:06:31.462Z,42.92
2023-04-05T21:09:01.198Z,42.86
2023-04-05T21:11:31.097Z,43.02
2023-04-05T21:14:02.126Z,43.07
2023-04-05T21:16:32.000Z,43.35
2023-04-05T21:19:01.674Z,43.34
2023-04-05T21:21:30.256Z,43.63
2023-04-05T21:23:58.700Z,43.58
2023-04-05T21:26:27.118Z,43.64
2023-04-05T21:28:55.569Z,43.62
2023-04-05T21:31:26.085Z,43.75
2023-04-05T21:33:54.855Z,43.92
2023-04-05T21:36:23.188Z,43.60
2023-04-05T21:38:51.929Z,43.98
2023-04-05T21:41:20.328Z,44.24
2023-04-05T21:43:50.121Z,44.28
2023-04-05T21:46:20.498Z,44.66
2023-04-05T21:48:50.977Z,44.70
2023-04-05T21:51:19.365Z,44.89
2023-04-05T21:53:48.149Z,44.83
2023-04-05T21:56:16.804Z,44.97
2023-04-05T21:58:45.208Z,45.04
2023-04-05T22:01:13.713Z,44.96
2023-04-05T22:03:42.138Z,44.98
2023-04-05T22:06:12.104Z,45.16
2023-04-05T22:08:40.662Z,45.42
2023-04-05T22:11:09.402Z,45.68
2023-04-05T22:13:37.774Z,45.90
2023-04-05T22:16:06.747Z,46.12
2023-04-05T22:18:35.225Z,46.54
2023-04-05T22:21:03.675Z,46.46
2023-04-05T22:23:33.590Z,46.50
2023-04-05T22:26:02.299Z,46.13
2023-04-05T22:28:30.734Z,46.32
2023-04-05T22:30:59.136Z,46.69
2023-04-05T22:33:27.594Z,46.92
2023-04-05T22:35:56.246Z,46.99
2023-04-05T22:38:24.708Z,46.88
2023-04-05T22:40:54.533Z,47.30
2023-04-05T22:43:24.143Z,47.07
2023-04-05T22:45:52.719Z,47.45
2023-04-05T22:48:21.523Z,47.22
2023-04-05T22:50:49.944Z,47.54
2023-04-05T22:53:18.417Z,47.40
2023-04-05T22:55:47.256Z,47.36
2023-04-05T22:58:17.508Z,47.82
2023-04-05T23:00:52.132Z,47.85
2023-04-05T23:03:21.061Z,47.75
2023-04-05T23:05:52.563Z,47.85
2023-04-05T23:08:20.902Z,47.75
2023-04-05T23:10:49.572Z,48.11
2023-04-05T23:13:19.404Z,48.20
2023-04-05T23:15:47.934Z,48.39
2023-04-05T23:18:22.160Z,48.43
2023-04-05T23:20:51.342Z,48.53
2023-04-05T23:23:19.770Z,48.28
2023-04-05T23:25:48.125Z,47.85
2023-04-05T23:28:16.608Z,47.85
2023-04-05T23:30:46.487Z,47.65
2023-04-05T23:33:14.914Z,47.83
2023-04-05T23:35:43.365Z,47.99
2023-04-05T23:38:12.933Z,47.73
2023-04-05T23:40:41.477Z,47.34
2023-04-05T23:43:09.978Z,47.11
2023-04-05T23:45:38.891Z,46.99
2023-04-05T23:48:09.137Z,46.91
2023-04-05T23:50:37.514Z,46.84
2023-04-05T23:53:06.038Z,46.54
2023-04-05T23:55:40.437Z,46.39
2023-04-05T23:58:09.076Z,46.67
